Time;durP1;ratioP1;P1;durP2;ratioP2;P2;SDS_P1;SDS_P2;PMS_P1;PMS_P2;Temp;Humidity;BMP_temperature;BMP_pressure;BME280_temperature;BME280_humidity;BME280_pressure;Samples;Min_cycle;Max_cycle;Signal;HPM_P1;HPM_P2
2022/07/07 00:08:11;;;;;;;27.77;17.00;;;;;;;;;;6310426;22;20014;-81
2022/07/07 00:10:37;;;;;;;37.20;18.50;;;;;;;;;;6309557;22;20042;-82
2022/07/07 00:13:03;;;;;;;35.78;19.80;;;;;;;;;;6308473;22;20141;-81
2022/07/07 00:15:29;;;;;;;33.22;18.15;;;;;;;;;;6281290;22;20061;-83
2022/07/07 00:17:56;;;;;;;29.48;16.38;;;;;;;;;;6253941;22;20343;-83
2022/07/07 00:20:22;;;;;;;19.33;12.75;;;;;;;;;;6308338;22;20025;-81
2022/07/07 00:22:51;;;;;;;24.58;14.25;;;;;;;;;;6279781;22;20434;-80
2022/07/07 00:25:17;;;;;;;24.40;13.98;;;;;;;;;;6310790;22;20481;-82
2022/07/07 00:34:51;;;;;;;20.98;13.63;;;;;;;;;;6250117;23;20082;-81
2022/07/07 00:37:44;;;;;;;24.70;13.75;;;;;;;;;;6223202;23;20035;-81
2022/07/07 00:40:10;;;;;;;19.38;11.10;;;;;;;;;;6220077;23;20024;-82
2022/07/07 00:42:37;;;;;;;20.60;11.18;;;;;;;;;;6246305;23;20023;-82
2022/07/07 00:45:12;;;;;;;21.60;12.10;;;;;;;;;;6221521;23;20016;-82
2022/07/07 00:47:40;;;;;;;23.17;12.57;;;;;;;;;;6221171;23;20031;-83
2022/07/07 00:50:06;;;;;;;31.25;12.73;;;;;;;;;;6222023;23;20462;-81
2022/07/07 00:52:32;;;;;;;21.85;12.57;;;;;;;;;;6195771;23;20444;-81
2022/07/07 00:55:00;;;;;;;22.08;10.73;;;;;;;;;;6246362;23;20024;-82
2022/07/07 00:57:26;;;;;;;25.90;11.73;;;;;;;;;;6248635;23;20392;-83
2022/07/07 00:59:56;;;;;;;15.32;8.75;;;;;;;;;;6248019;23;20024;-81
2022/07/07 01:02:22;;;;;;;17.42;9.50;;;;;;;;;;6250439;23;20095;-81
2022/07/07 01:04:55;;;;;;;9.52;7.25;;;;;;;;;;6194909;23;20034;-82
2022/07/07 01:07:21;;;;;;;15.38;8.10;;;;;;;;;;6248291;23;20020;-81
2022/07/07 01:09:50;;;;;;;12.05;6.00;;;;;;;;;;6247596;23;20047;-81
2022/07/07 01:12:16;;;;;;;10.52;5.15;;;;;;;;;;6247430;23;20112;-80
2022/07/07 01:14:42;;;;;;;12.40;4.55;;;;;;;;;;6246180;23;20024;-82
2022/07/07 01:17:09;;;;;;;8.75;4.55;;;;;;;;;;6248503;23;20012;-81
2022/07/07 01:19:35;;;;;;;9.15;4.75;;;;;;;;;;6220450;23;20016;-81
2022/07/07 01:22:16;;;;;;;8.45;4.72;;;;;;;;;;6246347;23;20340;-82
2022/07/07 01:24:42;;;;;;;9.52;4.80;;;;;;;;;;6220779;23;20027;-81
2022/07/07 01:27:08;;;;;;;9.52;5.40;;;;;;;;;;6246947;23;20039;-82
2022/07/07 01:30:03;;;;;;;12.00;6.05;;;;;;;;;;6247217;22;20070;-83
2022/07/07 01:32:31;;;;;;;11.80;5.95;;;;;;;;;;6242895;23;20019;-83
2022/07/07 01:34:57;;;;;;;12.18;5.57;;;;;;;;;;6245513;23;20028;-80
2022/07/07 01:37:24;;;;;;;11.65;5.90;;;;;;;;;;6216467;23;20154;-81
2022/07/07 01:39:51;;;;;;;11.75;6.28;;;;;;;;;;6244796;23;20047;-82
2022/07/07 01:45:39;;;;;;;18.90;7.57;;;;;;;;;;6245323;23;20046;-80
2022/07/07 01:48:06;;;;;;;18.17;7.97;;;;;;;;;;6246911;23;20031;-80
2022/07/07 01:50:32;;;;;;;19.30;8.65;;;;;;;;;;6216887;23;20035;-81
2022/07/07 01:52:58;;;;;;;16.90;8.25;;;;;;;;;;6244759;23;20047;-81
2022/07/07 01:55:24;;;;;;;19.90;8.38;;;;;;;;;;6245498;23;20024;-81
2022/07/07 01:57:50;;;;;;;18.17;8.82;;;;;;;;;;6246202;23;20059;-82
2022/07/07 02:00:19;;;;;;;19.45;8.52;;;;;;;;;;6245762;23;20016;-81
2022/07/07 02:02:45;;;;;;;21.10;8.95;;;;;;;;;;6248470;23;20044;-84
2022/07/07 02:05:11;;;;;;;22.80;8.68;;;;;;;;;;6220718;23;20026;-80
2022/07/07 02:07:37;;;;;;;20.95;8.68;;;;;;;;;;6248477;23;20016;-82
2022/07/07 02:10:04;;;;;;;16.85;7.25;;;;;;;;;;6247633;23;20023;-83
2022/07/07 02:12:31;;;;;;;17.05;6.15;;;;;;;;;;6197536;23;20024;-82
2022/07/07 02:14:57;;;;;;;16.65;4.93;;;;;;;;;;6198981;23;20043;-86
2022/07/07 02:17:24;;;;;;;11.95;4.93;;;;;;;;;;6249117;23;20016;-82
2022/07/07 02:19:56;;;;;;;19.75;4.90;;;;;;;;;;6252159;23;20016;-82
2022/07/07 02:22:22;;;;;;;16.00;4.03;;;;;;;;;;6250913;23;20027;-81
2022/07/07 02:25:00;;;;;;;16.65;4.32;;;;;;;;;;6252640;23;20088;-85
2022/07/07 02:27:26;;;;;;;18.60;4.10;;;;;;;;;;6249264;23;20142;-83
2022/07/07 02:29:52;;;;;;;17.30;4.10;;;;;;;;;;6248586;22;20023;-81
2022/07/07 02:32:18;;;;;;;12.07;4.18;;;;;;;;;;6248424;23;20016;-81
2022/07/07 02:34:46;;;;;;;15.35;4.53;;;;;;;;;;6252067;23;20379;-81
2022/07/07 02:37:12;;;;;;;22.95;4.47;;;;;;;;;;6224273;23;20143;-80
2022/07/07 02:39:38;;;;;;;16.10;4.60;;;;;;;;;;6253259;23;20020;-82
2022/07/07 02:42:04;;;;;;;23.02;4.65;;;;;;;;;;6250620;23;20020;-84
2022/07/07 02:44:30;;;;;;;16.13;4.55;;;;;;;;;;6247646;23;20031;-81
2022/07/07 02:46:56;;;;;;;6.82;3.30;;;;;;;;;;6247837;23;20013;-83
2022/07/07 02:49:22;;;;;;;13.27;3.90;;;;;;;;;;6248454;23;20027;-81
2022/07/07 02:51:55;;;;;;;18.88;4.60;;;;;;;;;;6245226;23;20518;-81
2022/07/07 02:54:21;;;;;;;12.65;4.05;;;;;;;;;;6216896;23;20027;-81
2022/07/07 02:56:50;;;;;;;10.43;4.00;;;;;;;;;;6248142;23;20023;-83
2022/07/07 02:59:16;;;;;;;16.95;4.10;;;;;;;;;;6243695;23;20026;-82
2022/07/07 03:01:42;;;;;;;13.32;3.78;;;;;;;;;;6220086;23;20360;-81
2022/07/07 03:04:14;;;;;;;13.15;3.83;;;;;;;;;;6217065;23;20020;-81
2022/07/07 03:06:46;;;;;;;11.00;3.53;;;;;;;;;;6245530;23;20031;-80
2022/07/07 03:09:12;;;;;;;20.02;3.58;;;;;;;;;;6217725;23;20027;-80
2022/07/07 03:11:38;;;;;;;21.55;3.80;;;;;;;;;;6245354;23;20035;-82
2022/07/07 03:14:04;;;;;;;18.83;4.38;;;;;;;;;;6242228;23;20035;-83
2022/07/07 03:16:30;;;;;;;12.38;3.30;;;;;;;;;;6243295;23;20020;-81
2022/07/07 03:18:57;;;;;;;7.03;2.47;;;;;;;;;;6245215;23;20048;-81
2022/07/07 03:21:23;;;;;;;10.80;2.72;;;;;;;;;;6244286;23;20567;-84
2022/07/07 03:23:49;;;;;;;14.30;2.67;;;;;;;;;;6245333;23;20021;-81
2022/07/07 03:26:15;;;;;;;14.20;2.97;;;;;;;;;;6217157;23;20023;-84
2022/07/07 03:28:41;;;;;;;14.38;2.90;;;;;;;;;;6245558;23;20721;-84
2022/07/07 03:31:08;;;;;;;23.00;3.40;;;;;;;;;;6193131;23;20020;-83
2022/07/07 03:33:37;;;;;;;19.00;2.78;;;;;;;;;;6220933;23;20498;-79
2022/07/07 03:36:03;;;;;;;23.05;2.63;;;;;;;;;;6248923;23;20460;-82
2022/07/07 03:38:29;;;;;;;18.92;2.60;;;;;;;;;;6223322;23;20058;-80
2022/07/07 03:40:55;;;;;;;21.58;2.20;;;;;;;;;;6251082;23;20055;-83
2022/07/07 03:43:21;;;;;;;14.52;1.90;;;;;;;;;;6249438;23;20023;-84
2022/07/07 03:45:49;;;;;;;8.98;1.50;;;;;;;;;;6250901;23;20020;-79
2022/07/07 03:48:15;;;;;;;13.32;1.73;;;;;;;;;;6247978;23;20016;-85
2022/07/07 03:50:41;;;;;;;13.18;2.22;;;;;;;;;;6249675;23;20020;-78
2022/07/07 03:53:07;;;;;;;6.18;1.10;;;;;;;;;;6248128;23;20020;-79
2022/07/07 03:55:34;;;;;;;8.43;1.50;;;;;;;;;;6248062;23;20043;-85
2022/07/07 03:58:00;;;;;;;6.70;1.15;;;;;;;;;;6250490;23;20067;-81
2022/07/07 04:00:26;;;;;;;10.50;1.20;;;;;;;;;;6221959;23;20074;-84
2022/07/07 04:02:52;;;;;;;11.20;1.63;;;;;;;;;;6250016;23;20031;-82
2022/07/07 04:05:18;;;;;;;11.05;1.75;;;;;;;;;;6246757;23;20020;-86
2022/07/07 04:07:47;;;;;;;11.70;2.00;;;;;;;;;;6249835;23;20464;-80
2022/07/07 04:10:14;;;;;;;14.65;2.13;;;;;;;;;;6242902;23;20070;-83
2022/07/07 04:12:40;;;;;;;12.75;1.77;;;;;;;;;;6243040;23;20345;-79
2022/07/07 04:15:18;;;;;;;12.40;2.45;;;;;;;;;;6215646;23;20062;-83
2022/07/07 04:17:44;;;;;;;9.70;1.80;;;;;;;;;;6243477;23;20407;-82
2022/07/07 04:20:11;;;;;;;10.32;1.73;;;;;;;;;;6216372;23;20028;-82
2022/07/07 04:22:37;;;;;;;11.73;1.67;;;;;;;;;;6241233;23;20149;-79
2022/07/07 04:25:04;;;;;;;18.27;2.33;;;;;;;;;;6242295;23;20070;-80
2022/07/07 04:27:30;;;;;;;13.18;2.67;;;;;;;;;;6215287;23;20336;-80
2022/07/07 04:29:56;;;;;;;13.82;2.22;;;;;;;;;;6214274;23;20028;-80
2022/07/07 04:32:22;;;;;;;12.30;1.65;;;;;;;;;;6240715;23;20024;-80
2022/07/07 04:34:48;;;;;;;12.98;1.90;;;;;;;;;;6214801;23;20020;-81
2022/07/07 04:37:14;;;;;;;13.10;2.90;;;;;;;;;;6188645;23;20020;-84
2022/07/07 04:39:40;;;;;;;15.77;2.42;;;;;;;;;;6241985;23;20048;-84
2022/07/07 04:42:06;;;;;;;10.00;1.98;;;;;;;;;;6240073;23;20020;-81
2022/07/07 04:44:32;;;;;;;15.02;2.63;;;;;;;;;;6240466;23;20035;-81
2022/07/07 04:46:59;;;;;;;12.07;2.83;;;;;;;;;;6215742;23;20820;-80
2022/07/07 04:49:25;;;;;;;12.98;2.67;;;;;;;;;;6241876;23;20023;-83
2022/07/07 04:51:51;;;;;;;19.98;3.28;;;;;;;;;;6214315;23;20459;-83
2022/07/07 04:54:17;;;;;;;20.75;2.97;;;;;;;;;;6240722;23;20376;-80
2022/07/07 04:56:43;;;;;;;24.55;3.42;;;;;;;;;;6215614;23;20047;-84
2022/07/07 04:59:09;;;;;;;12.55;3.15;;;;;;;;;;6240234;23;20032;-79
2022/07/07 05:01:35;;;;;;;12.07;2.75;;;;;;;;;;6242037;23;20533;-79
2022/07/07 05:04:01;;;;;;;18.27;2.50;;;;;;;;;;6240407;23;20436;-79
2022/07/07 05:06:27;;;;;;;12.93;2.05;;;;;;;;;;6238010;23;20020;-78
2022/07/07 05:08:53;;;;;;;9.27;2.33;;;;;;;;;;6241410;23;20020;-84
2022/07/07 05:11:19;;;;;;;19.65;2.85;;;;;;;;;;6212423;23;20024;-80
2022/07/07 05:13:45;;;;;;;11.68;2.22;;;;;;;;;;6213074;23;20023;-80
2022/07/07 05:16:12;;;;;;;8.45;2.17;;;;;;;;;;6238198;23;20012;-79
2022/07/07 05:18:38;;;;;;;17.80;3.85;;;;;;;;;;6238047;23;20023;-80
2022/07/07 05:21:04;;;;;;;16.15;4.15;;;;;;;;;;6237465;23;20012;-80
2022/07/07 05:23:31;;;;;;;23.02;3.47;;;;;;;;;;6236359;23;20062;-80
2022/07/07 05:25:57;;;;;;;15.88;3.15;;;;;;;;;;6237302;23;20020;-80
2022/07/07 05:28:23;;;;;;;14.15;2.47;;;;;;;;;;6237983;23;20062;-78
2022/07/07 05:30:49;;;;;;;18.55;3.45;;;;;;;;;;6262804;22;20351;-79
2022/07/07 05:33:15;;;;;;;11.10;2.10;;;;;;;;;;6267676;22;20027;-78
2022/07/07 05:35:41;;;;;;;18.30;3.30;;;;;;;;;;6274911;22;20015;-79
2022/07/07 05:38:07;;;;;;;15.63;2.85;;;;;;;;;;6246864;22;20357;-78
2022/07/07 05:40:35;;;;;;;19.50;3.22;;;;;;;;;;6247128;22;20078;-82
2022/07/07 05:43:04;;;;;;;16.48;2.78;;;;;;;;;;6271145;22;20016;-80
2022/07/07 05:45:30;;;;;;;15.07;3.35;;;;;;;;;;6269869;22;20504;-82
2022/07/07 05:47:56;;;;;;;19.02;2.80;;;;;;;;;;6243183;22;20541;-80
2022/07/07 05:50:22;;;;;;;18.33;4.13;;;;;;;;;;6271733;22;20022;-80
2022/07/07 05:52:48;;;;;;;23.80;3.20;;;;;;;;;;6271519;22;20011;-85
2022/07/07 05:55:14;;;;;;;16.75;3.35;;;;;;;;;;6268836;22;20015;-79
2022/07/07 05:57:40;;;;;;;24.45;3.65;;;;;;;;;;6269390;22;20024;-78
2022/07/07 06:00:07;;;;;;;13.60;2.83;;;;;;;;;;6273294;22;20031;-81
2022/07/07 06:02:33;;;;;;;16.67;2.90;;;;;;;;;;6272233;22;20060;-84
2022/07/07 06:04:59;;;;;;;13.63;2.67;;;;;;;;;;6246373;22;20024;-79
2022/07/07 06:07:25;;;;;;;12.85;2.40;;;;;;;;;;6269688;22;20291;-80
2022/07/07 06:09:51;;;;;;;13.30;2.30;;;;;;;;;;6270230;22;20514;-80
2022/07/07 06:12:17;;;;;;;12.32;3.00;;;;;;;;;;6269117;22;20023;-82
2022/07/07 06:14:43;;;;;;;11.13;2.83;;;;;;;;;;6272161;22;20024;-80
2022/07/07 06:17:10;;;;;;;16.35;3.53;;;;;;;;;;6271398;22;20020;-81
2022/07/07 06:19:36;;;;;;;18.35;3.17;;;;;;;;;;6245076;22;20469;-84
2022/07/07 06:22:02;;;;;;;13.57;2.80;;;;;;;;;;6241557;22;20023;-80
2022/07/07 06:24:28;;;;;;;15.27;2.63;;;;;;;;;;6268807;22;20023;-82
2022/07/07 06:26:54;;;;;;;13.57;2.70;;;;;;;;;;6268657;22;20015;-82
2022/07/07 06:29:38;;;;;;;10.35;2.15;;;;;;;;;;6266708;22;20110;-79
2022/07/07 06:32:04;;;;;;;13.18;2.40;;;;;;;;;;6271288;22;20012;-78
2022/07/07 06:34:31;;;;;;;12.38;2.70;;;;;;;;;;6270277;22;20500;-79
2022/07/07 06:37:03;;;;;;;13.48;2.63;;;;;;;;;;6269735;22;20027;-80
2022/07/07 06:39:42;;;;;;;11.00;2.47;;;;;;;;;;6240456;22;20023;-80
2022/07/07 06:42:08;;;;;;;8.13;2.42;;;;;;;;;;6274777;22;20042;-79
2022/07/07 06:44:36;;;;;;;9.55;1.98;;;;;;;;;;6273417;22;20015;-78
2022/07/07 06:47:03;;;;;;;14.13;2.92;;;;;;;;;;6272341;22;20090;-79
2022/07/07 06:49:29;;;;;;;12.18;3.13;;;;;;;;;;6195824;22;20063;-82
2022/07/07 06:51:55;;;;;;;10.77;1.75;;;;;;;;;;6270265;22;20047;-80
2022/07/07 06:54:24;;;;;;;8.75;1.80;;;;;;;;;;6217937;22;20023;-78
2022/07/07 06:56:51;;;;;;;13.02;2.10;;;;;;;;;;6266059;22;20016;-78
2022/07/07 06:59:17;;;;;;;8.55;2.38;;;;;;;;;;6244715;22;20040;-82
2022/07/07 07:01:44;;;;;;;14.05;1.95;;;;;;;;;;6269125;22;20051;-77
2022/07/07 07:04:13;;;;;;;10.13;1.77;;;;;;;;;;6215383;22;20096;-78
2022/07/07 07:06:39;;;;;;;14.65;1.98;;;;;;;;;;6268530;22;20023;-78
2022/07/07 07:09:06;;;;;;;10.35;2.97;;;;;;;;;;6266805;22;20022;-77
2022/07/07 07:11:44;;;;;;;10.02;1.98;;;;;;;;;;6272721;22;20110;-79
2022/07/07 07:14:13;;;;;;;12.23;2.13;;;;;;;;;;6273168;22;20019;-83
2022/07/07 07:16:39;;;;;;;17.10;3.15;;;;;;;;;;6273552;22;20020;-78
2022/07/07 07:19:05;;;;;;;9.68;1.77;;;;;;;;;;6273802;22;20015;-79
2022/07/07 07:21:31;;;;;;;11.00;1.60;;;;;;;;;;6274908;22;20023;-78
2022/07/07 07:24:11;;;;;;;7.18;1.73;;;;;;;;;;6273548;22;20020;-79
2022/07/07 07:26:38;;;;;;;9.80;1.92;;;;;;;;;;6273291;22;20034;-77
2022/07/07 07:29:07;;;;;;;9.85;1.42;;;;;;;;;;6273369;22;20019;-78
2022/07/07 07:31:34;;;;;;;9.88;2.47;;;;;;;;;;6274006;22;20034;-78
2022/07/07 07:34:00;;;;;;;4.80;1.02;;;;;;;;;;6273546;22;20055;-77
2022/07/07 07:36:29;;;;;;;6.55;1.10;;;;;;;;;;6272343;22;20459;-78
2022/07/07 07:38:55;;;;;;;10.02;1.55;;;;;;;;;;6274955;22;20023;-80
2022/07/07 07:41:21;;;;;;;17.65;1.80;;;;;;;;;;6275779;22;20054;-82
2022/07/07 07:43:47;;;;;;;8.90;1.38;;;;;;;;;;6276399;22;20023;-78
2022/07/07 07:46:14;;;;;;;6.78;1.20;;;;;;;;;;6247665;22;20558;-80
2022/07/07 07:48:40;;;;;;;5.00;1.10;;;;;;;;;;6247027;22;20034;-78
2022/07/07 07:51:15;;;;;;;6.43;1.17;;;;;;;;;;6275156;22;20075;-84
2022/07/07 07:53:42;;;;;;;7.18;1.20;;;;;;;;;;6274055;22;20042;-80
2022/07/07 07:56:08;;;;;;;6.35;1.27;;;;;;;;;;6248469;22;20016;-78
2022/07/07 07:58:34;;;;;;;11.15;1.40;;;;;;;;;;6274501;22;20091;-81
2022/07/07 08:01:00;;;;;;;8.20;1.70;;;;;;;;;;6275440;22;20020;-78
2022/07/07 08:03:26;;;;;;;8.45;1.27;;;;;;;;;;6247126;22;20535;-80
2022/07/07 08:05:55;;;;;;;8.50;1.38;;;;;;;;;;6275122;22;20050;-83
2022/07/07 08:08:32;;;;;;;9.02;1.00;;;;;;;;;;6274687;22;20015;-82
2022/07/07 08:10:58;;;;;;;7.40;1.25;;;;;;;;;;6250944;22;20109;-84
2022/07/07 08:13:24;;;;;;;9.43;1.42;;;;;;;;;;6274700;22;20028;-80
2022/07/07 08:15:51;;;;;;;4.80;1.50;;;;;;;;;;6270681;22;20024;-79
2022/07/07 08:18:17;;;;;;;7.22;1.23;;;;;;;;;;6243314;22;20020;-79
2022/07/07 08:20:43;;;;;;;4.97;1.40;;;;;;;;;;6242847;22;20103;-79
2022/07/07 08:23:09;;;;;;;7.85;1.20;;;;;;;;;;6272354;22;20062;-78
2022/07/07 08:25:35;;;;;;;10.95;1.77;;;;;;;;;;6243334;22;20431;-80
2022/07/07 08:28:01;;;;;;;9.55;1.65;;;;;;;;;;6273654;22;20686;-79
2022/07/07 08:30:56;;;;;;;9.13;1.40;;;;;;;;;;6253500;22;20020;-78
2022/07/07 08:36:07;;;;;;;6.95;1.20;;;;;;;;;;6224246;23;20141;-79
2022/07/07 08:38:33;;;;;;;7.32;1.85;;;;;;;;;;6245873;23;20453;-77
2022/07/07 08:40:59;;;;;;;8.10;1.85;;;;;;;;;;6193076;23;20035;-81
2022/07/07 08:43:31;;;;;;;6.82;1.75;;;;;;;;;;6215577;23;20055;-79
2022/07/07 08:46:06;;;;;;;5.00;1.15;;;;;;;;;;6243402;23;20016;-83
2022/07/07 08:48:32;;;;;;;11.13;2.28;;;;;;;;;;6214522;23;20026;-80
2022/07/07 08:50:59;;;;;;;7.03;1.40;;;;;;;;;;6242536;23;20102;-83
2022/07/07 08:53:32;;;;;;;4.80;1.38;;;;;;;;;;6214071;23;20024;-80
2022/07/07 08:55:59;;;;;;;8.25;2.08;;;;;;;;;;6217134;23;20034;-80
2022/07/07 08:58:37;;;;;;;8.50;1.80;;;;;;;;;;6243563;23;20027;-78
2022/07/07 09:01:12;;;;;;;9.82;2.15;;;;;;;;;;6237859;23;20016;-86
2022/07/07 09:03:47;;;;;;;13.48;2.15;;;;;;;;;;6237824;23;20027;-79
2022/07/07 09:06:19;;;;;;;9.93;3.83;;;;;;;;;;6209021;23;20027;-81
2022/07/07 09:08:52;;;;;;;7.88;2.08;;;;;;;;;;6238362;23;20387;-79
2022/07/07 09:11:28;;;;;;;7.97;2.03;;;;;;;;;;6233596;23;20016;-80
2022/07/07 09:14:14;;;;;;;8.93;2.03;;;;;;;;;;6180921;23;20078;-77
2022/07/07 09:16:40;;;;;;;10.32;1.75;;;;;;;;;;6237508;23;20389;-78
2022/07/07 09:19:25;;;;;;;12.40;1.92;;;;;;;;;;6238915;23;20023;-84
2022/07/07 09:21:57;;;;;;;8.77;1.92;;;;;;;;;;6228561;23;20030;-80
2022/07/07 09:24:29;;;;;;;12.32;2.03;;;;;;;;;;6240557;23;20020;-79
2022/07/07 09:26:55;;;;;;;12.07;2.30;;;;;;;;;;6213251;23;20024;-78
2022/07/07 09:29:23;;;;;;;10.68;2.10;;;;;;;;;;6213215;23;20604;-80
2022/07/07 09:31:52;;;;;;;10.93;1.83;;;;;;;;;;6257128;22;20059;-80
2022/07/07 09:34:19;;;;;;;9.90;1.80;;;;;;;;;;6241560;22;20031;-80
2022/07/07 09:39:51;;;;;;;6.90;1.48;;;;;;;;;;6240481;22;20352;-81
2022/07/07 09:42:36;;;;;;;7.93;1.30;;;;;;;;;;6269208;22;20015;-79
2022/07/07 09:45:12;;;;;;;3.85;0.82;;;;;;;;;;6240635;22;20031;-81
2022/07/07 09:47:38;;;;;;;5.55;1.17;;;;;;;;;;6267184;22;20019;-77
2022/07/07 09:50:06;;;;;;;8.15;1.63;;;;;;;;;;6242698;22;20023;-79
2022/07/07 09:52:36;;;;;;;8.77;1.55;;;;;;;;;;6267985;22;20295;-78
2022/07/07 09:55:04;;;;;;;10.43;1.85;;;;;;;;;;6240001;22;20027;-80
2022/07/07 09:57:30;;;;;;;10.93;1.73;;;;;;;;;;6266938;22;20051;-80
2022/07/07 09:59:56;;;;;;;15.32;2.10;;;;;;;;;;6239671;22;20023;-79
2022/07/07 10:02:26;;;;;;;9.38;1.67;;;;;;;;;;6241156;22;20102;-80
2022/07/07 10:04:56;;;;;;;7.10;1.63;;;;;;;;;;6238220;22;20474;-78
2022/07/07 10:07:35;;;;;;;7.07;1.73;;;;;;;;;;6216663;22;20023;-78
2022/07/07 10:10:08;;;;;;;11.18;1.75;;;;;;;;;;6266925;22;20019;-77
2022/07/07 10:12:49;;;;;;;15.23;2.03;;;;;;;;;;6268280;22;20024;-78
2022/07/07 10:15:16;;;;;;;16.92;3.20;;;;;;;;;;6268481;22;20016;-81
2022/07/07 10:20:59;;;;;;;17.33;3.00;;;;;;;;;;6071869;23;20111;-83
2022/07/07 10:29:40;;;;;;;13.70;2.67;;;;;;;;;;6246440;23;20035;-83
2022/07/07 10:38:43;;;;;;;25.33;4.78;;;;;;;;;;6186777;23;20032;-83
2022/07/07 10:41:22;;;;;;;;;;;;;;;;;;;;;
2022/07/07 10:44:50;;;;;;;;;;;;;;;;;;;;;
2022/07/07 10:47:52;;;;;;;23.15;4.18;;;;;;;;;;6044917;23;20015;-82
2022/07/07 10:54:12;;;;;;;;;;;;;;;;;;;;;
2022/07/07 10:57:39;;;;;;;19.35;3.70;;;17.30;99.90;;;;;;6251184;23;20030;-84
2022/07/07 11:03:13;;;;;;;17.58;2.80;;;;;;;;;;6283622;22;20083;-84
2022/07/07 11:05:46;;;;;;;19.08;2.65;;;;;;;;;;6280757;22;20020;-82
2022/07/07 11:11:54;;;;;;;20.05;3.33;;;;;;;;;;6282952;22;20162;-83
2022/07/07 11:21:10;;;;;;;15.85;2.95;;;;;;;;;;6161113;23;20024;-81
2022/07/07 11:23:42;;;;;;;23.52;3.15;;;;;;;;;;6159502;23;20021;-82
2022/07/07 11:26:09;;;;;;;16.10;3.17;;;;;;;;;;6223051;22;20027;-80
2022/07/07 11:28:36;;;;;;;14.38;3.55;;;;;;;;;;6255936;22;20019;-80
2022/07/07 11:31:03;;;;;;;21.05;4.70;;;;;;;;;;6258340;22;20023;-81
2022/07/07 11:37:16;;;;;;;21.33;3.58;;;;;;;;;;6287548;22;20011;-79
2022/07/07 11:39:42;;;;;;;25.23;3.63;;;;;;;;;;6280369;22;20019;-82
2022/07/07 11:42:08;;;;;;;17.65;3.53;;;;;;;;;;6281622;22;20101;-80
2022/07/07 11:44:53;;;;;;;12.82;2.50;;;;;;;;;;6279511;22;20016;-82
2022/07/07 11:47:32;;;;;;;16.52;2.75;;;;;;;;;;6253849;22;20101;-79
2022/07/07 11:49:58;;;;;;;16.75;2.45;;;;;;;;;;6250271;22;20023;-80
2022/07/07 11:52:43;;;;;;;14.07;2.58;;;;;;;;;;6280137;22;20026;-80
2022/07/07 11:55:09;;;;;;;14.73;2.65;;;;;;;;;;6223951;22;20073;-81
2022/07/07 11:57:58;;;;;;;16.98;3.08;;;;;;;;;;6227630;22;20015;-82
2022/07/07 12:00:48;;;;;;;15.70;2.75;;;;;;;;;;6279163;22;20019;-81
2022/07/07 12:03:18;;;;;;;14.98;3.10;;;;;;;;;;6251904;22;20024;-82
2022/07/07 12:06:03;;;;;;;21.13;3.47;;;;;;;;;;6279940;22;20069;-81
2022/07/07 12:08:35;;;;;;;15.27;2.90;;;;;;;;;;6278188;22;20047;-79
2022/07/07 12:11:01;;;;;;;21.00;3.58;;;;;;;;;;6277422;22;20023;-82
2022/07/07 12:13:39;;;;;;;15.63;3.20;;;;;;;;;;6276802;22;20073;-82
2022/07/07 12:16:09;;;;;;;20.08;3.45;;;;;;;;;;6276015;22;20034;-81
2022/07/07 12:18:55;;;;;;;21.98;2.92;;;;;;;;;;6247906;22;20099;-82
2022/07/07 12:21:30;;;;;;;13.85;3.40;;;;;;;;;;6275601;22;20020;-79
2022/07/07 12:24:02;;;;;;;18.55;3.25;;;;;;;;;;6277477;22;20016;-79
2022/07/07 12:26:42;;;;;;;26.50;3.90;;;;;;;;;;6276696;22;20436;-79
2022/07/07 12:29:21;;;;;;;23.48;3.58;;;;;;;;;;6277556;22;20337;-80
2022/07/07 12:31:55;;;;;;;21.60;4.38;;;;;;;;;;6247065;22;20531;-80
2022/07/07 12:34:22;;;;;;;19.70;2.95;;;;;;;;;;6278079;22;20028;-79
2022/07/07 12:36:52;;;;;;;21.52;3.60;;;;;;;;;;6276416;22;20016;-82
2022/07/07 12:39:18;;;;;;;20.42;3.13;;;;;;;;;;6252711;22;20107;-80
2022/07/07 12:41:56;;;;;;;16.48;3.42;;;;;;;;;;6275665;22;20824;-81
2022/07/07 12:44:23;;;;;;;17.38;3.10;;;;;;;;;;6277723;22;20470;-80
2022/07/07 12:46:50;;;;;;;14.32;3.20;;;;;;;;;;6266309;22;20076;-79
2022/07/07 12:49:16;;;;;;;24.88;3.83;;;;;;;;;;6282467;22;20016;-82
2022/07/07 12:52:03;;;;;;;17.10;3.22;;;;;;;;;;6254662;22;20071;-80
2022/07/07 12:54:30;;;;;;;15.77;3.45;;;;;;;;;;6255647;22;20051;-81
2022/07/07 12:57:00;;;;;;;13.25;2.58;;;;;;;;;;6251406;22;20023;-83
2022/07/07 12:59:28;;;;;;;16.30;3.42;;;;;;;;;;6282360;22;20034;-83
2022/07/07 13:01:56;;;;;;;17.73;2.78;;;;;;;;;;6274872;22;20027;-80
2022/07/07 13:04:30;;;;;;;16.75;2.67;;;;;;;;;;6246962;22;20022;-80
2022/07/07 13:06:57;;;;;;;13.95;2.72;;;;;;;;;;6249344;22;20015;-80
2022/07/07 13:09:27;;;;;;;12.02;2.25;;;;;;;;;;6246621;22;20096;-80
2022/07/07 13:11:57;;;;;;;14.05;2.53;;;;;;;;;;6277146;22;20023;-81
2022/07/07 13:14:23;;;;;;;11.02;2.30;;;;;;;;;;6275614;22;20023;-82
2022/07/07 13:16:49;;;;;;;27.75;3.35;;;;;;;;;;6226410;22;20020;-81
2022/07/07 13:19:15;;;;;;;16.92;2.88;;;;;;;;;;6249076;22;20028;-82
2022/07/07 13:21:42;;;;;;;12.85;2.78;;;;;;;;;;6277552;22;20018;-79
2022/07/07 13:24:14;;;;;;;17.98;2.50;;;;;;;;;;6274514;22;20091;-84
2022/07/07 13:27:01;;;;;;;11.10;2.03;;;;;;;;;;6249628;22;20094;-83
2022/07/07 13:29:45;;;;;;;14.68;2.30;;;17.60;99.90;;;;;;6276730;22;20024;-81
2022/07/07 13:32:25;;;;;;;18.33;2.88;;;;;;;;;;6274259;22;20076;-81
2022/07/07 13:34:51;;;;;;;12.93;1.95;;;;;;;;;;6278801;22;20038;-84
2022/07/07 13:37:17;;;;;;;14.68;2.40;;;;;;;;;;6274065;22;20043;-82
2022/07/07 13:39:44;;;;;;;17.95;2.67;;;;;;;;;;6201754;22;20030;-84
2022/07/07 13:42:10;;;;;;;11.52;2.28;;;;;;;;;;6248227;22;20020;-82
2022/07/07 13:44:37;;;;;;;9.45;2.17;;;;;;;;;;6275360;22;20018;-82
2022/07/07 13:47:03;;;;;;;12.43;2.10;;;;;;;;;;6244208;22;20016;-80
2022/07/07 13:49:30;;;;;;;12.13;3.00;;;;;;;;;;6273662;22;20036;-82
2022/07/07 13:51:59;;;;;;;14.45;2.03;;;;;;;;;;6272330;22;20015;-82
2022/07/07 13:54:27;;;;;;;13.55;2.45;;;;;;;;;;6245968;22;20024;-81
2022/07/07 13:56:53;;;;;;;13.82;2.10;;;;;;;;;;6272889;22;20572;-81
2022/07/07 13:59:22;;;;;;;16.38;2.58;;;;;;;;;;6276245;22;20042;-80
2022/07/07 14:01:48;;;;;;;14.80;2.45;;;;;;;;;;6250421;22;20020;-81
2022/07/07 14:04:14;;;;;;;15.15;2.78;;;;;;;;;;6275575;22;20015;-81
2022/07/07 14:06:40;;;;;;;13.65;1.90;;;;;;;;;;6275872;22;20023;-82
2022/07/07 14:09:18;;;;;;;11.90;2.10;;;;;;;;;;6243842;22;20042;-80
2022/07/07 14:11:44;;;;;;;12.70;2.50;;;;;;;;;;6272142;22;20020;-80
2022/07/07 14:14:11;;;;;;;16.60;2.83;;;;;;;;;;6242268;22;20020;-80
2022/07/07 14:16:37;;;;;;;17.73;2.58;;;;;;;;;;6270975;22;20517;-80
2022/07/07 14:19:03;;;;;;;20.67;3.67;;;;;;;;;;6269492;22;20094;-80
2022/07/07 14:21:29;;;;;;;9.88;2.05;;;;;;;;;;6270621;22;20043;-79
2022/07/07 14:23:56;;;;;;;10.32;1.83;;;;;;;;;;6244741;22;20026;-79
2022/07/07 14:26:22;;;;;;;14.93;2.30;;;;;;;;;;6271046;22;20016;-77
2022/07/07 14:28:50;;;;;;;20.25;3.85;;;;;;;;;;6273482;22;20661;-79
2022/07/07 14:31:16;;;;;;;9.85;1.60;;;;;;;;;;6271897;22;20020;-78
2022/07/07 14:33:42;;;;;;;12.18;2.35;;;;;;;;;;6272840;22;20030;-79
2022/07/07 14:36:08;;;;;;;12.35;2.35;;;;;;;;;;6243620;22;20020;-78
2022/07/07 14:38:34;;;;;;;15.50;2.42;;;;;;;;;;6275432;22;20020;-81
2022/07/07 14:41:00;;;;;;;12.57;2.15;;;;;;;;;;6245918;22;20034;-80
2022/07/07 14:43:26;;;;;;;12.05;2.13;;;;;;;;;;6272080;22;20110;-79
2022/07/07 14:45:53;;;;;;;13.43;1.98;;;;;;;;;;6272409;22;20046;-79
2022/07/07 14:48:20;;;;;;;13.55;2.20;;;;;;;;;;6273147;22;20051;-81
2022/07/07 14:50:46;;;;;;;9.85;2.00;;;;;;;;;;6249961;22;20311;-80
2022/07/07 14:53:12;;;;;;;13.32;1.63;;;;;;;;;;6247931;22;20092;-81
2022/07/07 14:55:40;;;;;;;10.38;2.20;;;;;;;;;;6276816;22;20091;-79
2022/07/07 14:58:06;;;;;;;18.13;2.45;;;;;;;;;;6275055;22;20459;-79
2022/07/07 15:00:32;;;;;;;14.25;2.13;;;;;;;;;;6250384;22;20016;-80
2022/07/07 15:02:58;;;;;;;12.23;1.95;;;;;;;;;;6276538;22;20024;-80
2022/07/07 15:05:24;;;;;;;14.15;1.95;;;;;;;;;;6246650;22;20035;-80
2022/07/07 15:07:51;;;;;;;9.05;1.63;;;;;;;;;;6247699;22;20099;-79
2022/07/07 15:10:17;;;;;;;12.10;2.03;;;;;;;;;;6273367;22;20107;-80
2022/07/07 15:12:43;;;;;;;15.23;2.35;;;;;;;;;;6275081;22;20019;-79
2022/07/07 15:15:09;;;;;;;11.23;3.28;;;;;;;;;;6273886;22;20019;-80
2022/07/07 15:17:35;;;;;;;12.85;2.80;;;;;;;;;;6244831;22;20043;-80
2022/07/07 15:20:01;;;;;;;16.55;2.75;;;;;;;;;;6271371;22;20341;-80
2022/07/07 15:22:28;;;;;;;13.57;2.42;;;;;;;;;;6271686;22;20371;-80
2022/07/07 15:24:54;;;;;;;11.32;2.03;;;;;;;;;;6244444;22;20022;-81
2022/07/07 15:27:20;;;;;;;9.75;2.55;;;;;;;;;;6272641;22;20041;-82
2022/07/07 15:29:46;;;;;;;8.93;2.17;;;;;;;;;;6277222;22;20750;-80
2022/07/07 15:32:12;;;;;;;10.32;2.72;;;;;;;;;;6246043;22;20026;-80
2022/07/07 15:34:38;;;;;;;14.65;2.45;;;;;;;;;;6247623;22;20433;-80
2022/07/07 15:37:04;;;;;;;15.23;2.60;;;;;;;;;;6272248;22;20039;-79
2022/07/07 15:39:31;;;;;;;7.72;1.88;;;;;;;;;;6272859;22;20015;-80
2022/07/07 15:41:57;;;;;;;8.52;1.73;;;;;;;;;;6271551;22;20056;-79
2022/07/07 15:44:23;;;;;;;10.93;1.98;;;;;;;;;;6269240;22;20022;-79